createdAt,value
2023-06-16T00:00:28.079Z,19.80
2023-06-16T00:02:58.834Z,19.80
2023-06-16T00:05:28.094Z,19.80
2023-06-16T00:07:56.011Z,19.70
2023-06-16T00:10:23.851Z,19.70
2023-06-16T00:12:51.718Z,19.60
2023-06-16T00:15:19.597Z,19.60
2023-06-16T00:17:48.111Z,19.60
2023-06-16T00:20:21.354Z,19.60
2023-06-16T00:22:50.165Z,19.60
2023-06-16T00:25:19.249Z,19.50
2023-06-16T00:27:47.511Z,19.50
2023-06-16T00:30:16.255Z,19.40
2023-06-16T00:32:44.428Z,19.30
2023-06-16T00:35:12.283Z,19.30
2023-06-16T00:37:41.565Z,19.30
2023-06-16T00:40:10.900Z,19.30
2023-06-16T00:42:38.782Z,19.20
2023-06-16T00:45:07.522Z,19.20
2023-06-16T00:47:36.489Z,19.20
2023-06-16T00:50:05.094Z,19.10
2023-06-16T00:52:38.464Z,19.20
2023-06-16T00:55:10.167Z,19.10
2023-06-16T00:57:38.353Z,19.00
2023-06-16T01:00:08.613Z,19.00
2023-06-16T01:02:37.990Z,19.00
2023-06-16T01:05:08.190Z,19.00
2023-06-16T01:07:40.863Z,19.00
2023-06-16T01:10:18.474Z,18.90
2023-06-16T01:12:56.222Z,18.90
2023-06-16T01:15:27.256Z,18.90
2023-06-16T01:17:58.808Z,18.80
2023-06-16T01:20:33.743Z,18.80
2023-06-16T01:23:15.898Z,18.80
2023-06-16T01:25:46.699Z,18.70
2023-06-16T01:28:20.344Z,18.70
2023-06-16T01:30:51.679Z,18.60
2023-06-16T01:33:22.408Z,18.50
2023-06-16T01:35:52.606Z,18.50
2023-06-16T01:38:22.423Z,18.50
2023-06-16T01:40:53.010Z,18.50
2023-06-16T01:43:21.816Z,18.40
2023-06-16T01:45:51.668Z,18.40
2023-06-16T01:48:20.904Z,18.30
2023-06-16T01:50:49.076Z,18.40
2023-06-16T01:53:16.998Z,18.30
2023-06-16T01:55:48.797Z,18.30
2023-06-16T01:58:19.403Z,18.20
2023-06-16T02:00:57.028Z,18.20
2023-06-16T02:03:30.395Z,18.20
2023-06-16T02:06:03.677Z,18.10
2023-06-16T02:08:33.882Z,18.10
2023-06-16T02:11:02.486Z,18.10
2023-06-16T02:13:32.026Z,18.00
2023-06-16T02:16:00.860Z,18.00
2023-06-16T02:18:29.019Z,17.90
2023-06-16T02:20:57.531Z,17.90
2023-06-16T02:23:26.110Z,17.80
2023-06-16T02:25:54.185Z,17.80
2023-06-16T02:28:22.155Z,17.70
2023-06-16T02:30:51.425Z,17.70
2023-06-16T02:33:19.422Z,17.60
2023-06-16T02:35:47.294Z,17.60
2023-06-16T02:38:15.221Z,17.60
2023-06-16T02:40:43.066Z,17.50
2023-06-16T02:43:10.992Z,17.50
2023-06-16T02:45:38.942Z,17.50
2023-06-16T02:48:08.479Z,17.40
2023-06-16T02:50:36.716Z,17.40
2023-06-16T02:53:04.662Z,17.40
2023-06-16T02:55:32.665Z,17.30
2023-06-16T02:58:00.731Z,17.30
2023-06-16T03:00:28.636Z,17.30
2023-06-16T03:02:56.730Z,17.20
2023-06-16T03:05:28.651Z,17.20
2023-06-16T03:07:56.817Z,17.20
2023-06-16T03:10:24.785Z,17.10
2023-06-16T03:12:52.776Z,17.10
2023-06-16T03:15:24.398Z,17.00
2023-06-16T03:17:52.338Z,17.00
2023-06-16T03:20:20.412Z,17.00
2023-06-16T03:22:49.819Z,17.00
2023-06-16T03:25:17.811Z,16.90
2023-06-16T03:27:45.724Z,16.90
2023-06-16T03:30:13.878Z,16.80
2023-06-16T03:32:45.161Z,16.80
2023-06-16T03:35:13.398Z,16.80
2023-06-16T03:37:41.223Z,16.70
2023-06-16T03:40:11.296Z,16.70
2023-06-16T03:42:39.564Z,16.60
2023-06-16T03:45:08.606Z,16.60
2023-06-16T03:47:36.501Z,16.50
2023-06-16T03:50:05.003Z,16.50
2023-06-16T03:52:32.904Z,16.50
2023-06-16T03:55:01.385Z,16.40
2023-06-16T03:57:30.895Z,16.40
2023-06-16T03:59:58.853Z,16.40
2023-06-16T04:02:26.733Z,16.30
2023-06-16T04:04:56.876Z,16.40
2023-06-16T04:07:24.862Z,16.30
2023-06-16T04:09:52.840Z,16.30
2023-06-16T04:12:20.980Z,16.30
2023-06-16T04:14:50.221Z,16.30
2023-06-16T04:17:18.116Z,16.20
2023-06-16T04:19:47.173Z,16.20
2023-06-16T04:22:15.028Z,16.30
2023-06-16T04:24:42.884Z,16.20
2023-06-16T04:27:10.917Z,16.20
2023-06-16T04:29:42.820Z,16.20
2023-06-16T04:32:15.147Z,16.20
2023-06-16T04:34:43.461Z,16.20
2023-06-16T04:37:12.892Z,16.20
2023-06-16T04:39:41.547Z,16.10
2023-06-16T04:42:11.046Z,16.10
2023-06-16T04:44:41.281Z,16.10
2023-06-16T04:47:10.958Z,16.10
2023-06-16T04:49:38.853Z,16.10
2023-06-16T04:52:07.784Z,16.10
2023-06-16T04:54:35.657Z,16.10
2023-06-16T04:57:03.558Z,16.10
2023-06-16T04:59:33.030Z,16.10
2023-06-16T05:02:01.435Z,16.10
2023-06-16T05:04:30.828Z,16.20
2023-06-16T05:06:58.764Z,16.10
2023-06-16T05:09:26.639Z,16.20
2023-06-16T05:11:54.546Z,16.20
2023-06-16T05:14:22.442Z,16.20
2023-06-16T05:16:50.392Z,16.20
2023-06-16T05:19:18.464Z,16.20
2023-06-16T05:21:47.946Z,16.30
2023-06-16T05:24:15.940Z,16.30
2023-06-16T05:26:43.822Z,16.30
2023-06-16T05:29:11.729Z,16.30
2023-06-16T05:31:39.701Z,16.30
2023-06-16T05:34:07.671Z,16.40
2023-06-16T05:36:36.883Z,16.40
2023-06-16T05:39:08.077Z,16.40
2023-06-16T05:41:36.791Z,16.40
2023-06-16T05:44:04.825Z,16.50
2023-06-16T05:46:32.666Z,16.50
2023-06-16T05:49:00.668Z,16.50
2023-06-16T05:51:28.576Z,16.50
2023-06-16T05:53:56.483Z,16.50
2023-06-16T05:56:25.798Z,16.60
2023-06-16T05:58:53.657Z,16.60
2023-06-16T06:01:21.658Z,16.60
2023-06-16T06:03:49.742Z,16.60
2023-06-16T06:06:17.966Z,16.70
2023-06-16T06:08:45.916Z,16.70
2023-06-16T06:11:13.934Z,16.70
2023-06-16T06:13:43.161Z,16.80
2023-06-16T06:16:12.640Z,16.80
2023-06-16T06:18:44.781Z,16.80
2023-06-16T06:21:12.796Z,16.90
2023-06-16T06:23:40.699Z,16.90
2023-06-16T06:26:08.865Z,17.00
2023-06-16T06:28:36.790Z,17.00
2023-06-16T06:31:06.159Z,17.10
2023-06-16T06:33:34.087Z,17.10
2023-06-16T06:36:01.969Z,17.20
2023-06-16T06:38:30.054Z,17.20
2023-06-16T06:40:58.174Z,17.30
2023-06-16T06:43:27.268Z,17.30
2023-06-16T06:45:55.346Z,17.40
2023-06-16T06:48:24.667Z,17.40
2023-06-16T06:50:52.651Z,17.40
2023-06-16T06:53:20.667Z,17.50
2023-06-16T06:55:48.699Z,17.50
2023-06-16T06:58:16.642Z,17.60
2023-06-16T07:00:44.536Z,17.70
2023-06-16T07:03:13.814Z,17.80
2023-06-16T07:05:43.688Z,17.80
2023-06-16T07:08:11.659Z,17.90
2023-06-16T07:10:39.584Z,18.00
2023-06-16T07:13:08.112Z,18.00
2023-06-16T07:15:36.301Z,18.20
2023-06-16T07:18:04.446Z,18.20
2023-06-16T07:20:32.403Z,18.30
2023-06-16T07:23:02.070Z,18.40
2023-06-16T07:25:33.572Z,18.40
2023-06-16T07:28:01.852Z,18.50
2023-06-16T07:30:29.778Z,18.50
2023-06-16T07:32:57.961Z,18.60
2023-06-16T07:35:25.988Z,18.70
2023-06-16T07:37:53.891Z,18.70
2023-06-16T07:40:23.370Z,18.80
2023-06-16T07:42:51.346Z,18.80
2023-06-16T07:45:19.535Z,18.90
2023-06-16T07:47:48.120Z,19.00
2023-06-16T07:50:16.304Z,19.10
2023-06-16T07:52:44.423Z,19.20
2023-06-16T07:55:12.672Z,19.30
2023-06-16T07:57:41.964Z,19.30
2023-06-16T08:00:12.730Z,19.40
2023-06-16T08:02:41.601Z,19.50
2023-06-16T08:05:10.556Z,19.60
2023-06-16T08:07:38.468Z,19.70
2023-06-16T08:10:07.712Z,19.80
2023-06-16T08:12:35.687Z,19.90
2023-06-16T08:15:06.304Z,19.90
2023-06-16T08:17:35.125Z,20.00
2023-06-16T08:20:04.992Z,20.10
2023-06-16T08:22:33.051Z,20.10
2023-06-16T08:25:02.459Z,20.20
2023-06-16T08:27:30.395Z,20.20
2023-06-16T08:29:58.578Z,20.30
2023-06-16T08:32:27.880Z,20.30
2023-06-16T08:34:55.833Z,20.50
2023-06-16T08:37:29.568Z,20.60
2023-06-16T08:39:58.600Z,20.50
2023-06-16T08:42:26.845Z,20.60
2023-06-16T08:44:55.261Z,20.70
2023-06-16T08:47:23.822Z,20.80
2023-06-16T08:49:55.872Z,20.90
2023-06-16T08:52:38.989Z,21.00
2023-06-16T08:55:14.898Z,21.10
2023-06-16T08:57:48.404Z,21.30
2023-06-16T09:00:18.679Z,21.30
2023-06-16T09:02:50.720Z,21.30
2023-06-16T09:05:20.882Z,21.40
2023-06-16T09:07:50.905Z,21.50
2023-06-16T09:10:19.737Z,21.60
2023-06-16T09:12:53.290Z,21.70
2023-06-16T09:15:22.163Z,21.80
2023-06-16T09:17:51.901Z,21.80
2023-06-16T09:20:24.047Z,21.80
2023-06-16T09:23:00.305Z,21.80
2023-06-16T09:25:28.402Z,22.00
2023-06-16T09:27:59.546Z,22.00
2023-06-16T09:30:34.951Z,22.10
2023-06-16T09:33:03.104Z,22.20
2023-06-16T09:35:33.712Z,22.20
2023-06-16T09:38:04.638Z,22.30
2023-06-16T09:40:33.756Z,22.30
2023-06-16T09:43:05.019Z,22.40
2023-06-16T09:45:34.070Z,22.50
2023-06-16T09:48:04.828Z,22.40
2023-06-16T09:50:34.744Z,22.50
2023-06-16T09:53:06.272Z,22.60
2023-06-16T09:55:38.482Z,22.70
2023-06-16T09:58:06.764Z,22.70
2023-06-16T10:00:35.499Z,22.80
2023-06-16T10:03:06.074Z,22.80
2023-06-16T10:05:36.382Z,22.90
2023-06-16T10:08:06.582Z,22.90
2023-06-16T10:10:38.624Z,23.00
2023-06-16T10:13:08.922Z,23.20
2023-06-16T10:15:39.508Z,23.20
2023-06-16T10:18:12.094Z,23.20
2023-06-16T10:20:42.362Z,23.20
2023-06-16T10:23:11.283Z,23.20
2023-06-16T10:25:41.222Z,23.40
2023-06-16T10:28:12.617Z,23.40
2023-06-16T10:30:41.175Z,23.50
2023-06-16T10:33:18.500Z,23.30
2023-06-16T10:36:16.005Z,23.40
2023-06-16T10:38:57.353Z,23.40
2023-06-16T10:41:25.395Z,23.60
2023-06-16T10:43:53.384Z,23.70
2023-06-16T10:46:23.249Z,23.80
2023-06-16T10:49:12.959Z,23.80
2023-06-16T10:51:50.123Z,23.80
2023-06-16T10:54:37.194Z,23.80
2023-06-16T10:59:57.436Z,23.90
2023-06-16T11:02:27.471Z,23.90
2023-06-16T11:05:14.511Z,24.00
2023-06-16T11:07:47.339Z,24.20
2023-06-16T11:10:19.872Z,24.20
2023-06-16T11:12:48.424Z,24.10
2023-06-16T11:15:16.565Z,24.10
2023-06-16T11:17:45.723Z,24.10
2023-06-16T11:20:14.627Z,24.30
2023-06-16T11:22:44.924Z,24.30
2023-06-16T11:25:14.104Z,24.40
2023-06-16T11:27:42.204Z,24.50
2023-06-16T11:30:10.678Z,24.50
2023-06-16T11:32:39.482Z,24.70
2023-06-16T11:35:08.494Z,24.50
2023-06-16T11:37:49.083Z,24.50
2023-06-16T11:40:20.319Z,24.60
2023-06-16T11:42:55.756Z,24.60
2023-06-16T11:45:23.713Z,24.70
2023-06-16T11:47:52.010Z,24.70
2023-06-16T11:50:20.512Z,24.70
2023-06-16T11:52:51.221Z,24.80
2023-06-16T11:55:19.462Z,24.80
2023-06-16T11:57:48.113Z,25.00
2023-06-16T12:00:18.681Z,25.10
2023-06-16T12:02:48.625Z,25.10
2023-06-16T12:05:22.660Z,25.10
2023-06-16T12:07:52.355Z,25.20
2023-06-16T12:10:21.194Z,25.20
2023-06-16T12:12:49.390Z,25.20
2023-06-16T12:15:19.612Z,25.30
2023-06-16T12:17:48.534Z,25.30
2023-06-16T12:20:20.312Z,25.40
2023-06-16T12:22:48.714Z,25.50
2023-06-16T12:25:19.194Z,25.50
2023-06-16T12:27:50.662Z,25.60
2023-06-16T12:30:19.829Z,25.70
2023-06-16T12:32:48.673Z,25.50
2023-06-16T12:35:25.916Z,25.50
2023-06-16T12:37:59.893Z,25.50
2023-06-16T12:40:32.336Z,25.50
2023-06-16T12:43:25.011Z,25.50
2023-06-16T12:45:53.823Z,25.50
2023-06-16T12:48:22.489Z,25.60
2023-06-16T12:50:50.463Z,25.90
2023-06-16T12:53:18.386Z,26.00
2023-06-16T12:55:47.727Z,26.10
2023-06-16T12:58:15.874Z,26.00
2023-06-16T13:00:43.857Z,26.00
2023-06-16T13:03:15.338Z,25.90
2023-06-16T13:05:43.887Z,26.00
2023-06-16T13:08:11.784Z,26.10
2023-06-16T13:10:39.676Z,26.20
2023-06-16T13:13:09.223Z,26.20
2023-06-16T13:15:37.206Z,26.20
2023-06-16T13:18:06.736Z,26.00
2023-06-16T13:20:34.943Z,26.00
2023-06-16T13:23:02.913Z,26.10
2023-06-16T13:25:30.895Z,26.10
2023-06-16T13:27:58.905Z,26.10
2023-06-16T13:30:28.233Z,26.10
2023-06-16T13:32:56.177Z,26.20
2023-06-16T13:35:24.050Z,26.30
2023-06-16T13:37:52.388Z,26.30
2023-06-16T13:40:20.887Z,26.30
2023-06-16T13:42:49.243Z,26.40
2023-06-16T13:45:17.187Z,26.40
2023-06-16T13:47:46.464Z,26.40
2023-06-16T13:50:14.545Z,26.30
2023-06-16T13:52:42.431Z,26.20
2023-06-16T13:55:10.590Z,26.10
2023-06-16T13:57:38.527Z,26.10
2023-06-16T14:00:07.669Z,26.10
2023-06-16T14:02:35.623Z,26.10
2023-06-16T14:05:05.193Z,26.20
2023-06-16T14:07:34.173Z,26.40
2023-06-16T14:10:03.011Z,26.30
2023-06-16T14:12:31.266Z,26.40
2023-06-16T14:14:59.252Z,26.50
2023-06-16T14:17:27.256Z,26.60
2023-06-16T14:19:55.224Z,26.50
2023-06-16T14:22:24.431Z,26.40
2023-06-16T14:24:52.321Z,26.50
2023-06-16T14:27:20.409Z,26.60
2023-06-16T14:29:48.297Z,26.70
2023-06-16T14:32:16.205Z,26.70
2023-06-16T14:34:44.282Z,26.70
2023-06-16T14:37:12.422Z,26.90
2023-06-16T14:39:41.963Z,27.00
2023-06-16T14:42:10.039Z,27.10
2023-06-16T14:44:37.925Z,27.20
2023-06-16T14:47:06.518Z,27.20
2023-06-16T14:49:34.440Z,27.20
2023-06-16T14:52:02.525Z,27.30
2023-06-16T14:54:30.458Z,27.30
2023-06-16T14:56:59.689Z,27.20
2023-06-16T14:59:28.271Z,27.20
2023-06-16T15:01:56.287Z,27.10
2023-06-16T15:04:24.803Z,27.00
2023-06-16T15:06:52.944Z,27.00
2023-06-16T15:09:20.897Z,26.90
2023-06-16T15:11:48.820Z,27.00
2023-06-16T15:14:18.087Z,27.10
2023-06-16T15:16:45.973Z,27.10
2023-06-16T15:19:14.008Z,27.10
2023-06-16T15:21:41.965Z,27.10
2023-06-16T15:24:10.006Z,27.10
2023-06-16T15:26:39.438Z,27.10
2023-06-16T15:29:07.395Z,27.20
2023-06-16T15:31:36.727Z,27.30
2023-06-16T15:34:04.925Z,27.30
2023-06-16T15:36:32.788Z,27.40
2023-06-16T15:39:00.692Z,27.40
2023-06-16T15:41:28.595Z,27.40
2023-06-16T15:43:56.518Z,27.50
2023-06-16T15:46:24.462Z,27.50
2023-06-16T15:48:53.756Z,27.60
2023-06-16T15:51:22.282Z,27.70
2023-06-16T15:53:50.118Z,27.60
2023-06-16T15:56:18.048Z,27.60
2023-06-16T15:58:45.926Z,27.60
2023-06-16T16:01:13.933Z,27.50
2023-06-16T16:03:42.039Z,27.50
2023-06-16T16:06:11.407Z,27.50
2023-06-16T16:08:39.426Z,27.60
2023-06-16T16:11:07.355Z,27.70
2023-06-16T16:13:35.289Z,27.70
2023-06-16T16:16:03.305Z,27.90
2023-06-16T16:18:32.124Z,27.90
2023-06-16T16:21:02.140Z,27.90
2023-06-16T16:23:32.500Z,28.00
2023-06-16T16:26:00.645Z,27.90
2023-06-16T16:28:28.613Z,27.90
2023-06-16T16:30:56.565Z,27.90
2023-06-16T16:33:24.542Z,27.90
2023-06-16T16:35:52.450Z,27.90
2023-06-16T16:38:20.363Z,27.90
2023-06-16T16:40:49.608Z,27.90
2023-06-16T16:43:17.552Z,28.00
2023-06-16T16:45:45.598Z,28.00
2023-06-16T16:48:13.508Z,27.90
2023-06-16T16:50:41.710Z,28.00
2023-06-16T16:53:10.554Z,27.90
2023-06-16T16:55:38.464Z,27.80
2023-06-16T16:58:07.712Z,27.80
2023-06-16T17:00:36.840Z,27.90
2023-06-16T17:03:04.899Z,28.00
2023-06-16T17:05:33.025Z,28.10
2023-06-16T17:08:01.102Z,28.00
2023-06-16T17:10:28.990Z,28.00
2023-06-16T17:12:57.015Z,27.80
2023-06-16T17:15:26.518Z,27.70
2023-06-16T17:17:54.565Z,27.70
2023-06-16T17:20:22.657Z,27.60
2023-06-16T17:22:51.012Z,27.60
2023-06-16T17:25:18.953Z,27.60
2023-06-16T17:27:57.504Z,27.70
2023-06-16T17:30:29.036Z,27.50
2023-06-16T17:33:00.133Z,27.50
2023-06-16T17:35:29.419Z,27.60
2023-06-16T17:37:57.622Z,27.60
2023-06-16T17:40:29.309Z,27.70
2023-06-16T17:42:57.217Z,27.70
2023-06-16T17:45:25.200Z,27.80
2023-06-16T17:47:54.838Z,27.90
2023-06-16T17:50:24.993Z,28.00
2023-06-16T17:52:56.065Z,28.00
2023-06-16T17:55:24.097Z,28.00
2023-06-16T17:57:52.020Z,28.00
2023-06-16T18:00:20.387Z,28.00
2023-06-16T18:02:48.769Z,28.00
2023-06-16T18:05:18.665Z,28.00
2023-06-16T18:07:47.543Z,28.10
2023-06-16T18:10:15.480Z,28.00
2023-06-16T18:12:43.393Z,28.00
2023-06-16T18:15:11.755Z,28.00
2023-06-16T18:17:39.698Z,28.00
2023-06-16T18:20:08.997Z,28.00
2023-06-16T18:22:38.418Z,27.90
2023-06-16T18:25:08.303Z,27.80
2023-06-16T18:27:36.846Z,27.80
2023-06-16T18:30:06.121Z,27.80
2023-06-16T18:32:37.131Z,27.70
2023-06-16T18:35:06.535Z,27.70
2023-06-16T18:37:43.831Z,27.60
2023-06-16T18:40:12.657Z,27.60
2023-06-16T18:42:40.941Z,27.50
2023-06-16T18:45:09.714Z,27.40
2023-06-16T18:47:39.090Z,27.30
2023-06-16T18:50:09.204Z,27.30
2023-06-16T18:52:37.595Z,27.30
2023-06-16T18:55:07.959Z,27.20
2023-06-16T18:57:36.645Z,27.10
2023-06-16T19:00:06.472Z,27.10
2023-06-16T19:02:34.445Z,27.00
2023-06-16T19:05:02.612Z,27.00
2023-06-16T19:07:31.134Z,26.90
2023-06-16T19:09:59.128Z,26.90
2023-06-16T19:12:28.413Z,26.80
2023-06-16T19:14:56.328Z,26.70
2023-06-16T19:17:27.186Z,26.70
2023-06-16T19:19:55.417Z,26.60
2023-06-16T19:22:23.349Z,26.50
2023-06-16T19:24:53.529Z,26.50
2023-06-16T19:27:21.511Z,26.40
2023-06-16T19:29:50.823Z,26.30
2023-06-16T19:32:18.762Z,26.20
2023-06-16T19:34:47.325Z,26.20
2023-06-16T19:37:15.325Z,26.10
2023-06-16T19:39:43.241Z,26.00
2023-06-16T19:42:11.127Z,26.00
2023-06-16T19:44:39.081Z,25.90
2023-06-16T19:47:08.737Z,25.90
2023-06-16T19:49:36.737Z,25.80
2023-06-16T19:52:05.065Z,25.70
2023-06-16T19:54:32.950Z,25.60
2023-06-16T19:57:00.822Z,25.60
2023-06-16T19:59:28.673Z,25.50
2023-06-16T20:01:56.575Z,25.40
2023-06-16T20:04:26.110Z,25.40
2023-06-16T20:06:54.592Z,25.30
2023-06-16T20:09:24.583Z,25.20
2023-06-16T20:11:53.629Z,25.10
2023-06-16T20:14:21.551Z,25.10
2023-06-16T20:16:49.540Z,25.00
2023-06-16T20:19:17.412Z,25.00
2023-06-16T20:21:46.650Z,24.90
2023-06-16T20:24:14.690Z,24.80
2023-06-16T20:26:42.587Z,24.80
2023-06-16T20:29:10.590Z,24.60
2023-06-16T20:31:38.495Z,24.60
2023-06-16T20:34:09.137Z,24.50
2023-06-16T20:36:39.255Z,24.50
2023-06-16T20:39:10.592Z,24.40
2023-06-16T20:41:39.863Z,24.30
2023-06-16T20:44:09.802Z,24.20
2023-06-16T20:46:39.784Z,24.20
2023-06-16T20:49:09.841Z,24.10
2023-06-16T20:51:37.871Z,24.10
2023-06-16T20:54:06.370Z,24.10
2023-06-16T20:56:35.615Z,23.90
2023-06-16T20:59:03.531Z,23.90
2023-06-16T21:01:40.586Z,23.80
2023-06-16T21:04:12.484Z,23.70
2023-06-16T21:06:41.219Z,23.70
2023-06-16T21:09:10.818Z,23.60
2023-06-16T21:11:40.132Z,23.60
2023-06-16T21:14:10.545Z,23.50
2023-06-16T21:16:39.001Z,23.50
2023-06-16T21:19:07.113Z,23.40
2023-06-16T21:21:35.005Z,23.40
2023-06-16T21:24:03.633Z,23.30
2023-06-16T21:26:31.665Z,23.20
2023-06-16T21:29:00.878Z,23.30
2023-06-16T21:31:28.760Z,23.20
2023-06-16T21:33:56.677Z,23.10
2023-06-16T21:36:25.875Z,23.10
2023-06-16T21:38:56.715Z,23.00
2023-06-16T21:41:25.335Z,23.00
2023-06-16T21:43:53.492Z,22.90
2023-06-16T21:46:22.857Z,22.90
2023-06-16T21:48:51.296Z,22.80
2023-06-16T21:51:19.343Z,22.70
2023-06-16T21:53:47.252Z,22.70
2023-06-16T21:56:15.138Z,22.70
2023-06-16T21:58:43.069Z,22.60
2023-06-16T22:01:11.121Z,22.60
2023-06-16T22:03:40.627Z,22.50
2023-06-16T22:06:10.513Z,22.50
2023-06-16T22:08:38.525Z,22.40
2023-06-16T22:11:07.276Z,22.40
2023-06-16T22:13:36.979Z,22.30
2023-06-16T22:16:05.940Z,22.30
2023-06-16T22:18:34.181Z,22.20
2023-06-16T22:21:03.402Z,22.20
2023-06-16T22:23:31.943Z,22.10
2023-06-16T22:25:59.837Z,22.10
2023-06-16T22:28:27.714Z,22.10
2023-06-16T22:30:55.646Z,22.00
2023-06-16T22:33:23.790Z,22.00
2023-06-16T22:35:51.654Z,22.00
2023-06-16T22:38:20.895Z,21.90
2023-06-16T22:40:48.862Z,21.90
2023-06-16T22:43:16.815Z,21.90
2023-06-16T22:45:44.667Z,21.80
2023-06-16T22:48:13.691Z,21.70
2023-06-16T22:50:41.920Z,21.70
2023-06-16T22:53:09.947Z,21.70
2023-06-16T22:55:39.201Z,21.60
2023-06-16T22:58:14.427Z,21.50
2023-06-16T23:00:42.353Z,21.50
2023-06-16T23:03:10.375Z,21.50
2023-06-16T23:05:38.267Z,21.40
2023-06-16T23:08:06.722Z,21.40
2023-06-16T23:10:34.853Z,21.30
2023-06-16T23:13:04.346Z,21.30
2023-06-16T23:15:32.273Z,21.30
2023-06-16T23:18:00.340Z,21.20
2023-06-16T23:20:30.527Z,21.10
2023-06-16T23:22:58.700Z,21.10
2023-06-16T23:25:26.617Z,21.10
2023-06-16T23:27:55.369Z,21.10
2023-06-16T23:30:25.664Z,21.10
2023-06-16T23:32:53.798Z,21.00
2023-06-16T23:35:22.178Z,21.00
2023-06-16T23:37:51.395Z,20.90
2023-06-16T23:40:19.958Z,20.90
2023-06-16T23:42:48.001Z,20.90
2023-06-16T23:45:16.733Z,20.80
2023-06-16T23:47:47.001Z,20.70
2023-06-16T23:50:14.932Z,20.70
2023-06-16T23:52:43.160Z,20.70
2023-06-16T23:55:11.226Z,20.60
2023-06-16T23:57:39.105Z,20.60
